sensor_id;sensor_type;location;lat;lon;timestamp;P1;durP1;ratioP1;P2;durP2;ratioP2
59147;SDS011;44930;52.878;6.168;2023-02-15T00:00:03;30.55;;;20.55;;
59147;SDS011;44930;52.878;6.168;2023-02-15T00:02:30;29.30;;;21.15;;
59147;SDS011;44930;52.878;6.168;2023-02-15T00:04:56;31.77;;;20.92;;
59147;SDS011;44930;52.878;6.168;2023-02-15T00:07:21;28.92;;;20.25;;
59147;SDS011;44930;52.878;6.168;2023-02-15T00:09:47;27.75;;;19.67;;
59147;SDS011;44930;52.878;6.168;2023-02-15T00:12:14;34.75;;;21.90;;
59147;SDS011;44930;52.878;6.168;2023-02-15T00:14:40;35.20;;;22.38;;
59147;SDS011;44930;52.878;6.168;2023-02-15T00:17:07;35.50;;;22.35;;
59147;SDS011;44930;52.878;6.168;2023-02-15T00:19:32;36.00;;;22.65;;
59147;SDS011;44930;52.878;6.168;2023-02-15T00:21:58;37.85;;;22.80;;
59147;SDS011;44930;52.878;6.168;2023-02-15T00:24:24;33.22;;;23.23;;
59147;SDS011;44930;52.878;6.168;2023-02-15T00:26:50;34.30;;;23.98;;
59147;SDS011;44930;52.878;6.168;2023-02-15T00:29:16;28.58;;;20.77;;
59147;SDS011;44930;52.878;6.168;2023-02-15T00:31:43;28.92;;;20.92;;
59147;SDS011;44930;52.878;6.168;2023-02-15T00:36:37;35.13;;;22.90;;
59147;SDS011;44930;52.878;6.168;2023-02-15T00:39:03;34.92;;;24.50;;
59147;SDS011;44930;52.878;6.168;2023-02-15T00:41:29;32.72;;;22.13;;
59147;SDS011;44930;52.878;6.168;2023-02-15T00:43:55;33.50;;;20.92;;
59147;SDS011;44930;52.878;6.168;2023-02-15T00:46:21;33.63;;;20.85;;
59147;SDS011;44930;52.878;6.168;2023-02-15T00:48:47;25.55;;;18.35;;
59147;SDS011;44930;52.878;6.168;2023-02-15T00:51:12;25.75;;;17.42;;
59147;SDS011;44930;52.878;6.168;2023-02-15T00:53:38;28.10;;;19.48;;
59147;SDS011;44930;52.878;6.168;2023-02-15T00:56:04;25.67;;;18.67;;
59147;SDS011;44930;52.878;6.168;2023-02-15T00:58:29;22.15;;;17.40;;
59147;SDS011;44930;52.878;6.168;2023-02-15T01:00:55;21.92;;;17.10;;
59147;SDS011;44930;52.878;6.168;2023-02-15T01:03:31;27.15;;;17.77;;
59147;SDS011;44930;52.878;6.168;2023-02-15T01:05:58;30.58;;;20.40;;
59147;SDS011;44930;52.878;6.168;2023-02-15T01:08:23;27.15;;;18.98;;
59147;SDS011;44930;52.878;6.168;2023-02-15T01:10:49;26.25;;;19.15;;
59147;SDS011;44930;52.878;6.168;2023-02-15T01:13:15;31.05;;;20.25;;
59147;SDS011;44930;52.878;6.168;2023-02-15T01:15:41;29.10;;;20.85;;
59147;SDS011;44930;52.878;6.168;2023-02-15T01:18:07;28.52;;;20.30;;
59147;SDS011;44930;52.878;6.168;2023-02-15T01:20:34;29.05;;;19.58;;
59147;SDS011;44930;52.878;6.168;2023-02-15T01:23:03;23.30;;;18.40;;
59147;SDS011;44930;52.878;6.168;2023-02-15T01:25:30;24.73;;;19.13;;
59147;SDS011;44930;52.878;6.168;2023-02-15T01:27:56;26.65;;;19.52;;
59147;SDS011;44930;52.878;6.168;2023-02-15T01:30:22;22.45;;;17.67;;
59147;SDS011;44930;52.878;6.168;2023-02-15T01:32:48;22.30;;;16.75;;
59147;SDS011;44930;52.878;6.168;2023-02-15T01:35:13;22.90;;;17.23;;
59147;SDS011;44930;52.878;6.168;2023-02-15T01:37:39;23.10;;;18.27;;
59147;SDS011;44930;52.878;6.168;2023-02-15T01:40:06;25.08;;;18.20;;
59147;SDS011;44930;52.878;6.168;2023-02-15T01:42:34;30.80;;;21.00;;
59147;SDS011;44930;52.878;6.168;2023-02-15T01:45:04;24.83;;;18.17;;
59147;SDS011;44930;52.878;6.168;2023-02-15T01:50:37;25.85;;;18.48;;
59147;SDS011;44930;52.878;6.168;2023-02-15T01:53:24;27.30;;;19.48;;
59147;SDS011;44930;52.878;6.168;2023-02-15T01:56:06;22.90;;;18.30;;
59147;SDS011;44930;52.878;6.168;2023-02-15T01:58:38;24.38;;;17.75;;
59147;SDS011;44930;52.878;6.168;2023-02-15T02:01:04;25.13;;;18.23;;
59147;SDS011;44930;52.878;6.168;2023-02-15T02:03:38;23.23;;;17.70;;
59147;SDS011;44930;52.878;6.168;2023-02-15T02:06:09;24.75;;;18.42;;
59147;SDS011;44930;52.878;6.168;2023-02-15T02:08:35;32.47;;;19.75;;
59147;SDS011;44930;52.878;6.168;2023-02-15T02:11:01;25.27;;;18.42;;
59147;SDS011;44930;52.878;6.168;2023-02-15T02:13:27;28.13;;;20.85;;
59147;SDS011;44930;52.878;6.168;2023-02-15T02:15:57;27.30;;;18.23;;
59147;SDS011;44930;52.878;6.168;2023-02-15T02:19:10;29.42;;;18.40;;
59147;SDS011;44930;52.878;6.168;2023-02-15T02:27:42;80.43;;;28.77;;
59147;SDS011;44930;52.878;6.168;2023-02-15T02:33:06;38.40;;;23.83;;
59147;SDS011;44930;52.878;6.168;2023-02-15T02:35:56;39.22;;;23.90;;
59147;SDS011;44930;52.878;6.168;2023-02-15T02:41:30;31.83;;;20.90;;
59147;SDS011;44930;52.878;6.168;2023-02-15T02:44:19;28.00;;;19.30;;
59147;SDS011;44930;52.878;6.168;2023-02-15T02:47:08;23.92;;;17.45;;
59147;SDS011;44930;52.878;6.168;2023-02-15T02:49:39;40.10;;;21.85;;
59147;SDS011;44930;52.878;6.168;2023-02-15T02:54:56;57.47;;;23.50;;
59147;SDS011;44930;52.878;6.168;2023-02-15T02:57:22;55.78;;;26.00;;
59147;SDS011;44930;52.878;6.168;2023-02-15T02:59:51;52.58;;;24.02;;
59147;SDS011;44930;52.878;6.168;2023-02-15T03:02:24;46.90;;;23.80;;
59147;SDS011;44930;52.878;6.168;2023-02-15T03:04:56;57.13;;;23.70;;
59147;SDS011;44930;52.878;6.168;2023-02-15T03:07:28;35.75;;;23.80;;
59147;SDS011;44930;52.878;6.168;2023-02-15T03:09:59;35.80;;;22.63;;
59147;SDS011;44930;52.878;6.168;2023-02-15T03:12:33;33.33;;;23.23;;
59147;SDS011;44930;52.878;6.168;2023-02-15T03:15:02;33.88;;;22.40;;
59147;SDS011;44930;52.878;6.168;2023-02-15T03:17:45;30.60;;;21.23;;
59147;SDS011;44930;52.878;6.168;2023-02-15T03:20:31;30.10;;;20.67;;
59147;SDS011;44930;52.878;6.168;2023-02-15T03:23:01;31.98;;;21.83;;
59147;SDS011;44930;52.878;6.168;2023-02-15T03:25:34;33.80;;;23.25;;
59147;SDS011;44930;52.878;6.168;2023-02-15T03:28:15;33.17;;;22.55;;
59147;SDS011;44930;52.878;6.168;2023-02-15T03:30:45;29.83;;;21.33;;
59147;SDS011;44930;52.878;6.168;2023-02-15T03:33:11;31.05;;;20.60;;
59147;SDS011;44930;52.878;6.168;2023-02-15T03:35:43;27.70;;;20.70;;
59147;SDS011;44930;52.878;6.168;2023-02-15T03:38:17;26.67;;;19.65;;
59147;SDS011;44930;52.878;6.168;2023-02-15T03:40:47;27.60;;;20.73;;
59147;SDS011;44930;52.878;6.168;2023-02-15T03:46:23;27.30;;;20.03;;
59147;SDS011;44930;52.878;6.168;2023-02-15T03:48:53;25.90;;;19.50;;
59147;SDS011;44930;52.878;6.168;2023-02-15T03:51:22;28.30;;;19.75;;
59147;SDS011;44930;52.878;6.168;2023-02-15T03:53:58;29.92;;;20.30;;
59147;SDS011;44930;52.878;6.168;2023-02-15T03:56:29;34.30;;;21.48;;
59147;SDS011;44930;52.878;6.168;2023-02-15T03:58:55;30.42;;;20.70;;
59147;SDS011;44930;52.878;6.168;2023-02-15T04:01:41;24.90;;;19.25;;
59147;SDS011;44930;52.878;6.168;2023-02-15T04:04:24;28.17;;;20.63;;
59147;SDS011;44930;52.878;6.168;2023-02-15T04:06:50;28.33;;;19.98;;
59147;SDS011;44930;52.878;6.168;2023-02-15T04:09:16;26.73;;;20.33;;
59147;SDS011;44930;52.878;6.168;2023-02-15T04:12:00;25.80;;;18.83;;
59147;SDS011;44930;52.878;6.168;2023-02-15T04:14:26;29.85;;;19.33;;
59147;SDS011;44930;52.878;6.168;2023-02-15T04:17:10;27.45;;;19.67;;
59147;SDS011;44930;52.878;6.168;2023-02-15T04:19:36;27.13;;;20.10;;
59147;SDS011;44930;52.878;6.168;2023-02-15T04:22:20;30.25;;;21.00;;
59147;SDS011;44930;52.878;6.168;2023-02-15T04:25:05;28.08;;;20.20;;
59147;SDS011;44930;52.878;6.168;2023-02-15T04:27:41;30.05;;;20.75;;
59147;SDS011;44930;52.878;6.168;2023-02-15T04:30:08;25.45;;;19.45;;
59147;SDS011;44930;52.878;6.168;2023-02-15T04:32:35;27.73;;;21.10;;
59147;SDS011;44930;52.878;6.168;2023-02-15T04:35:01;27.10;;;19.17;;
59147;SDS011;44930;52.878;6.168;2023-02-15T04:37:27;27.45;;;19.98;;
59147;SDS011;44930;52.878;6.168;2023-02-15T04:39:53;25.25;;;18.80;;
59147;SDS011;44930;52.878;6.168;2023-02-15T04:42:19;27.40;;;19.38;;
59147;SDS011;44930;52.878;6.168;2023-02-15T04:44:44;25.35;;;18.63;;
59147;SDS011;44930;52.878;6.168;2023-02-15T04:47:10;24.75;;;19.05;;
59147;SDS011;44930;52.878;6.168;2023-02-15T04:49:35;28.67;;;21.08;;
59147;SDS011;44930;52.878;6.168;2023-02-15T04:52:01;26.20;;;19.17;;
59147;SDS011;44930;52.878;6.168;2023-02-15T04:54:27;27.13;;;19.08;;
59147;SDS011;44930;52.878;6.168;2023-02-15T04:56:53;25.42;;;18.60;;
59147;SDS011;44930;52.878;6.168;2023-02-15T04:59:18;26.52;;;19.27;;
59147;SDS011;44930;52.878;6.168;2023-02-15T05:01:44;25.00;;;18.33;;
59147;SDS011;44930;52.878;6.168;2023-02-15T05:04:09;25.95;;;18.48;;
59147;SDS011;44930;52.878;6.168;2023-02-15T05:06:35;29.70;;;19.73;;
59147;SDS011;44930;52.878;6.168;2023-02-15T05:09:00;31.23;;;21.65;;
59147;SDS011;44930;52.878;6.168;2023-02-15T05:11:26;33.05;;;21.55;;
59147;SDS011;44930;52.878;6.168;2023-02-15T05:13:52;31.17;;;22.10;;
59147;SDS011;44930;52.878;6.168;2023-02-15T05:16:18;29.98;;;21.45;;
59147;SDS011;44930;52.878;6.168;2023-02-15T05:18:44;31.20;;;21.70;;
59147;SDS011;44930;52.878;6.168;2023-02-15T05:21:09;37.35;;;25.50;;
59147;SDS011;44930;52.878;6.168;2023-02-15T05:23:35;43.72;;;26.80;;
59147;SDS011;44930;52.878;6.168;2023-02-15T05:26:02;46.63;;;28.58;;
59147;SDS011;44930;52.878;6.168;2023-02-15T05:28:47;43.70;;;28.48;;
59147;SDS011;44930;52.878;6.168;2023-02-15T05:31:17;45.95;;;28.40;;
59147;SDS011;44930;52.878;6.168;2023-02-15T05:33:43;46.22;;;29.00;;
59147;SDS011;44930;52.878;6.168;2023-02-15T05:36:09;41.63;;;27.90;;
59147;SDS011;44930;52.878;6.168;2023-02-15T05:38:35;44.58;;;28.23;;
59147;SDS011;44930;52.878;6.168;2023-02-15T05:41:02;46.22;;;28.80;;
59147;SDS011;44930;52.878;6.168;2023-02-15T05:43:29;41.88;;;27.55;;
59147;SDS011;44930;52.878;6.168;2023-02-15T05:45:55;46.38;;;29.80;;
59147;SDS011;44930;52.878;6.168;2023-02-15T05:48:21;49.42;;;29.60;;
59147;SDS011;44930;52.878;6.168;2023-02-15T05:53:28;47.95;;;30.45;;
59147;SDS011;44930;52.878;6.168;2023-02-15T05:55:55;47.45;;;29.67;;
59147;SDS011;44930;52.878;6.168;2023-02-15T05:58:26;45.13;;;27.67;;
59147;SDS011;44930;52.878;6.168;2023-02-15T06:00:54;42.85;;;27.90;;
59147;SDS011;44930;52.878;6.168;2023-02-15T06:03:20;45.20;;;27.88;;
59147;SDS011;44930;52.878;6.168;2023-02-15T06:05:46;41.38;;;26.35;;
59147;SDS011;44930;52.878;6.168;2023-02-15T06:08:12;42.17;;;26.42;;
59147;SDS011;44930;52.878;6.168;2023-02-15T06:10:38;43.78;;;26.02;;
59147;SDS011;44930;52.878;6.168;2023-02-15T06:13:05;40.70;;;26.58;;
59147;SDS011;44930;52.878;6.168;2023-02-15T06:15:30;42.38;;;26.52;;
59147;SDS011;44930;52.878;6.168;2023-02-15T06:17:56;41.25;;;26.27;;
59147;SDS011;44930;52.878;6.168;2023-02-15T06:20:21;40.35;;;27.17;;
59147;SDS011;44930;52.878;6.168;2023-02-15T06:22:47;45.70;;;24.92;;
59147;SDS011;44930;52.878;6.168;2023-02-15T06:25:13;40.53;;;25.55;;
59147;SDS011;44930;52.878;6.168;2023-02-15T06:27:40;40.63;;;24.52;;
59147;SDS011;44930;52.878;6.168;2023-02-15T06:30:07;40.00;;;25.15;;
59147;SDS011;44930;52.878;6.168;2023-02-15T06:32:34;41.35;;;25.92;;
59147;SDS011;44930;52.878;6.168;2023-02-15T06:35:00;38.40;;;24.05;;
59147;SDS011;44930;52.878;6.168;2023-02-15T06:37:25;36.58;;;24.73;;
59147;SDS011;44930;52.878;6.168;2023-02-15T06:39:51;42.97;;;26.08;;
59147;SDS011;44930;52.878;6.168;2023-02-15T06:42:17;40.75;;;26.88;;
59147;SDS011;44930;52.878;6.168;2023-02-15T06:44:43;45.67;;;27.40;;
59147;SDS011;44930;52.878;6.168;2023-02-15T06:47:09;42.10;;;26.10;;
59147;SDS011;44930;52.878;6.168;2023-02-15T06:49:36;39.90;;;27.40;;
59147;SDS011;44930;52.878;6.168;2023-02-15T06:52:02;41.55;;;26.08;;
59147;SDS011;44930;52.878;6.168;2023-02-15T06:54:28;39.15;;;25.40;;
59147;SDS011;44930;52.878;6.168;2023-02-15T06:56:53;45.13;;;27.42;;
59147;SDS011;44930;52.878;6.168;2023-02-15T06:59:19;47.47;;;27.65;;
59147;SDS011;44930;52.878;6.168;2023-02-15T07:01:44;46.75;;;27.20;;
59147;SDS011;44930;52.878;6.168;2023-02-15T07:04:10;40.72;;;26.00;;
59147;SDS011;44930;52.878;6.168;2023-02-15T07:06:36;39.65;;;25.10;;
59147;SDS011;44930;52.878;6.168;2023-02-15T07:09:01;41.63;;;25.42;;
59147;SDS011;44930;52.878;6.168;2023-02-15T07:11:27;40.00;;;25.65;;
59147;SDS011;44930;52.878;6.168;2023-02-15T07:14:13;40.83;;;24.63;;
59147;SDS011;44930;52.878;6.168;2023-02-15T07:16:39;37.88;;;23.95;;
59147;SDS011;44930;52.878;6.168;2023-02-15T07:19:04;44.80;;;25.77;;
59147;SDS011;44930;52.878;6.168;2023-02-15T07:21:30;38.22;;;25.15;;
59147;SDS011;44930;52.878;6.168;2023-02-15T07:23:56;47.50;;;26.23;;
59147;SDS011;44930;52.878;6.168;2023-02-15T07:26:24;38.55;;;24.67;;
59147;SDS011;44930;52.878;6.168;2023-02-15T07:28:50;46.72;;;27.70;;
59147;SDS011;44930;52.878;6.168;2023-02-15T07:31:15;42.42;;;26.73;;
59147;SDS011;44930;52.878;6.168;2023-02-15T07:33:41;42.63;;;25.80;;
59147;SDS011;44930;52.878;6.168;2023-02-15T07:36:07;44.17;;;26.25;;
59147;SDS011;44930;52.878;6.168;2023-02-15T07:38:35;41.97;;;24.50;;
59147;SDS011;44930;52.878;6.168;2023-02-15T07:41:02;43.00;;;25.48;;
59147;SDS011;44930;52.878;6.168;2023-02-15T07:43:30;44.33;;;27.30;;
59147;SDS011;44930;52.878;6.168;2023-02-15T07:46:00;42.05;;;26.63;;
59147;SDS011;44930;52.878;6.168;2023-02-15T07:48:27;54.13;;;28.38;;
59147;SDS011;44930;52.878;6.168;2023-02-15T07:50:53;48.40;;;26.52;;
59147;SDS011;44930;52.878;6.168;2023-02-15T07:53:19;52.10;;;28.35;;
59147;SDS011;44930;52.878;6.168;2023-02-15T07:55:44;45.10;;;26.30;;
59147;SDS011;44930;52.878;6.168;2023-02-15T07:58:10;39.40;;;24.77;;
59147;SDS011;44930;52.878;6.168;2023-02-15T08:00:35;47.97;;;27.33;;
59147;SDS011;44930;52.878;6.168;2023-02-15T08:03:24;46.93;;;26.43;;
59147;SDS011;44930;52.878;6.168;2023-02-15T08:05:57;46.53;;;25.33;;
59147;SDS011;44930;52.878;6.168;2023-02-15T08:08:24;43.90;;;26.00;;
59147;SDS011;44930;52.878;6.168;2023-02-15T08:10:57;47.28;;;26.23;;
59147;SDS011;44930;52.878;6.168;2023-02-15T08:13:43;41.13;;;26.13;;
59147;SDS011;44930;52.878;6.168;2023-02-15T08:18:47;47.42;;;27.02;;
59147;SDS011;44930;52.878;6.168;2023-02-15T08:21:13;48.40;;;27.63;;
59147;SDS011;44930;52.878;6.168;2023-02-15T08:23:39;49.75;;;29.55;;
59147;SDS011;44930;52.878;6.168;2023-02-15T08:26:05;44.05;;;27.55;;
59147;SDS011;44930;52.878;6.168;2023-02-15T08:28:30;50.80;;;28.58;;
59147;SDS011;44930;52.878;6.168;2023-02-15T08:31:03;49.17;;;27.98;;
59147;SDS011;44930;52.878;6.168;2023-02-15T08:33:33;51.80;;;30.20;;
59147;SDS011;44930;52.878;6.168;2023-02-15T08:36:04;52.20;;;29.50;;
59147;SDS011;44930;52.878;6.168;2023-02-15T08:38:31;53.55;;;29.50;;
59147;SDS011;44930;52.878;6.168;2023-02-15T08:40:57;49.03;;;29.38;;
59147;SDS011;44930;52.878;6.168;2023-02-15T08:43:23;51.70;;;29.48;;
59147;SDS011;44930;52.878;6.168;2023-02-15T08:45:49;58.50;;;31.48;;
59147;SDS011;44930;52.878;6.168;2023-02-15T08:48:14;55.35;;;30.75;;
59147;SDS011;44930;52.878;6.168;2023-02-15T08:50:40;55.35;;;30.45;;
59147;SDS011;44930;52.878;6.168;2023-02-15T08:53:06;56.45;;;32.28;;
59147;SDS011;44930;52.878;6.168;2023-02-15T08:55:31;51.13;;;30.45;;
59147;SDS011;44930;52.878;6.168;2023-02-15T08:57:57;51.60;;;30.75;;
59147;SDS011;44930;52.878;6.168;2023-02-15T09:00:23;54.42;;;31.70;;
59147;SDS011;44930;52.878;6.168;2023-02-15T09:02:50;53.63;;;31.17;;
59147;SDS011;44930;52.878;6.168;2023-02-15T09:05:15;56.70;;;32.00;;
59147;SDS011;44930;52.878;6.168;2023-02-15T09:07:41;55.40;;;31.98;;
59147;SDS011;44930;52.878;6.168;2023-02-15T09:10:06;57.08;;;32.40;;
59147;SDS011;44930;52.878;6.168;2023-02-15T09:12:32;53.67;;;32.50;;
59147;SDS011;44930;52.878;6.168;2023-02-15T09:14:57;52.15;;;30.38;;
59147;SDS011;44930;52.878;6.168;2023-02-15T09:17:23;55.67;;;31.13;;
59147;SDS011;44930;52.878;6.168;2023-02-15T09:19:49;53.85;;;29.90;;
59147;SDS011;44930;52.878;6.168;2023-02-15T09:22:14;54.00;;;31.40;;
59147;SDS011;44930;52.878;6.168;2023-02-15T09:24:40;54.10;;;29.60;;
59147;SDS011;44930;52.878;6.168;2023-02-15T09:27:05;53.47;;;32.53;;
59147;SDS011;44930;52.878;6.168;2023-02-15T09:29:31;58.03;;;32.42;;
59147;SDS011;44930;52.878;6.168;2023-02-15T09:31:56;52.53;;;33.30;;
59147;SDS011;44930;52.878;6.168;2023-02-15T09:34:22;55.08;;;33.28;;
59147;SDS011;44930;52.878;6.168;2023-02-15T09:36:48;56.00;;;32.92;;
59147;SDS011;44930;52.878;6.168;2023-02-15T09:39:15;54.40;;;32.80;;
59147;SDS011;44930;52.878;6.168;2023-02-15T10:04:24;65.85;;;36.20;;
59147;SDS011;44930;52.878;6.168;2023-02-15T10:12:44;65.57;;;38.00;;
59147;SDS011;44930;52.878;6.168;2023-02-15T10:15:29;63.03;;;36.30;;
59147;SDS011;44930;52.878;6.168;2023-02-15T10:18:01;66.78;;;36.25;;
59147;SDS011;44930;52.878;6.168;2023-02-15T10:26:22;56.08;;;35.17;;
59147;SDS011;44930;52.878;6.168;2023-02-15T10:29:09;57.47;;;34.55;;
59147;SDS011;44930;52.878;6.168;2023-02-15T10:31:51;60.83;;;37.25;;
59147;SDS011;44930;52.878;6.168;2023-02-15T10:34:37;62.70;;;35.83;;
59147;SDS011;44930;52.878;6.168;2023-02-15T10:40:08;59.80;;;35.55;;
59147;SDS011;44930;52.878;6.168;2023-02-15T10:45:21;57.33;;;35.78;;
59147;SDS011;44930;52.878;6.168;2023-02-15T10:48:16;55.60;;;33.40;;
59147;SDS011;44930;52.878;6.168;2023-02-15T10:50:50;53.08;;;33.67;;
59147;SDS011;44930;52.878;6.168;2023-02-15T10:53:24;57.90;;;35.47;;
59147;SDS011;44930;52.878;6.168;2023-02-15T11:01:58;57.70;;;34.92;;
59147;SDS011;44930;52.878;6.168;2023-02-15T11:04:38;57.15;;;35.67;;
59147;SDS011;44930;52.878;6.168;2023-02-15T11:12:42;52.60;;;33.47;;
59147;SDS011;44930;52.878;6.168;2023-02-15T11:15:14;54.80;;;34.08;;
59147;SDS011;44930;52.878;6.168;2023-02-15T11:17:43;56.47;;;33.70;;
59147;SDS011;44930;52.878;6.168;2023-02-15T11:23:06;56.63;;;34.80;;
59147;SDS011;44930;52.878;6.168;2023-02-15T11:25:41;53.40;;;33.70;;
59147;SDS011;44930;52.878;6.168;2023-02-15T11:28:19;56.30;;;33.05;;
59147;SDS011;44930;52.878;6.168;2023-02-15T11:30:51;52.63;;;33.72;;
59147;SDS011;44930;52.878;6.168;2023-02-15T11:33:30;51.15;;;33.40;;
59147;SDS011;44930;52.878;6.168;2023-02-15T11:36:05;51.20;;;33.03;;
59147;SDS011;44930;52.878;6.168;2023-02-15T11:38:36;56.00;;;33.38;;
59147;SDS011;44930;52.878;6.168;2023-02-15T11:41:12;57.58;;;33.17;;
59147;SDS011;44930;52.878;6.168;2023-02-15T11:46:14;45.40;;;30.45;;
59147;SDS011;44930;52.878;6.168;2023-02-15T11:48:40;45.97;;;29.88;;
59147;SDS011;44930;52.878;6.168;2023-02-15T11:51:20;47.53;;;30.30;;
59147;SDS011;44930;52.878;6.168;2023-02-15T11:53:47;55.05;;;31.13;;
59147;SDS011;44930;52.878;6.168;2023-02-15T11:56:14;48.95;;;30.15;;
59147;SDS011;44930;52.878;6.168;2023-02-15T11:58:49;47.13;;;29.27;;
59147;SDS011;44930;52.878;6.168;2023-02-15T12:01:32;44.00;;;29.10;;
59147;SDS011;44930;52.878;6.168;2023-02-15T12:04:21;52.55;;;29.38;;
59147;SDS011;44930;52.878;6.168;2023-02-15T12:07:09;47.10;;;29.60;;
59147;SDS011;44930;52.878;6.168;2023-02-15T12:09:48;48.35;;;27.63;;
59147;SDS011;44930;52.878;6.168;2023-02-15T12:12:30;47.92;;;29.58;;
59147;SDS011;44930;52.878;6.168;2023-02-15T12:15:01;48.58;;;29.08;;
59147;SDS011;44930;52.878;6.168;2023-02-15T12:22:39;49.75;;;31.23;;
59147;SDS011;44930;52.878;6.168;2023-02-15T12:25:24;47.25;;;29.13;;
59147;SDS011;44930;52.878;6.168;2023-02-15T12:27:54;47.58;;;29.42;;
59147;SDS011;44930;52.878;6.168;2023-02-15T12:30:25;45.42;;;28.77;;
59147;SDS011;44930;52.878;6.168;2023-02-15T12:33:05;50.55;;;28.65;;
59147;SDS011;44930;52.878;6.168;2023-02-15T12:35:38;45.33;;;29.15;;
59147;SDS011;44930;52.878;6.168;2023-02-15T12:38:09;44.60;;;28.25;;
59147;SDS011;44930;52.878;6.168;2023-02-15T12:40:58;47.17;;;28.40;;
59147;SDS011;44930;52.878;6.168;2023-02-15T12:43:44;48.38;;;27.60;;
59147;SDS011;44930;52.878;6.168;2023-02-15T12:46:14;46.80;;;28.00;;
59147;SDS011;44930;52.878;6.168;2023-02-15T12:48:43;43.97;;;27.85;;
59147;SDS011;44930;52.878;6.168;2023-02-15T12:51:13;43.38;;;28.70;;
59147;SDS011;44930;52.878;6.168;2023-02-15T12:53:40;51.08;;;29.40;;
59147;SDS011;44930;52.878;6.168;2023-02-15T12:56:06;48.80;;;29.27;;
59147;SDS011;44930;52.878;6.168;2023-02-15T12:58:34;41.97;;;26.73;;
59147;SDS011;44930;52.878;6.168;2023-02-15T13:03:34;46.33;;;28.48;;
59147;SDS011;44930;52.878;6.168;2023-02-15T13:06:04;44.33;;;27.13;;
59147;SDS011;44930;52.878;6.168;2023-02-15T13:08:34;42.40;;;28.38;;
59147;SDS011;44930;52.878;6.168;2023-02-15T13:11:11;40.45;;;27.23;;
59147;SDS011;44930;52.878;6.168;2023-02-15T13:13:56;39.90;;;25.40;;
59147;SDS011;44930;52.878;6.168;2023-02-15T13:16:34;40.63;;;25.95;;
59147;SDS011;44930;52.878;6.168;2023-02-15T13:19:08;43.85;;;26.70;;
59147;SDS011;44930;52.878;6.168;2023-02-15T13:21:41;40.70;;;25.63;;
59147;SDS011;44930;52.878;6.168;2023-02-15T13:26:58;47.17;;;27.15;;
59147;SDS011;44930;52.878;6.168;2023-02-15T13:29:28;38.15;;;25.02;;
59147;SDS011;44930;52.878;6.168;2023-02-15T13:31:57;43.33;;;28.30;;
59147;SDS011;44930;52.878;6.168;2023-02-15T13:39:54;41.70;;;25.73;;
59147;SDS011;44930;52.878;6.168;2023-02-15T13:42:40;46.08;;;27.85;;
59147;SDS011;44930;52.878;6.168;2023-02-15T13:45:19;42.20;;;26.58;;
59147;SDS011;44930;52.878;6.168;2023-02-15T13:51:16;41.03;;;24.73;;
59147;SDS011;44930;52.878;6.168;2023-02-15T13:59:52;37.55;;;25.63;;
59147;SDS011;44930;52.878;6.168;2023-02-15T14:02:43;39.58;;;24.63;;
59147;SDS011;44930;52.878;6.168;2023-02-15T14:10:50;39.20;;;25.27;;
59147;SDS011;44930;52.878;6.168;2023-02-15T14:16:26;44.63;;;25.77;;
59147;SDS011;44930;52.878;6.168;2023-02-15T14:19:04;41.72;;;27.30;;
59147;SDS011;44930;52.878;6.168;2023-02-15T14:21:47;46.83;;;26.95;;
59147;SDS011;44930;52.878;6.168;2023-02-15T14:30:13;39.92;;;26.33;;
59147;SDS011;44930;52.878;6.168;2023-02-15T14:32:51;42.17;;;27.15;;
59147;SDS011;44930;52.878;6.168;2023-02-15T14:35:23;38.95;;;26.33;;
59147;SDS011;44930;52.878;6.168;2023-02-15T14:37:55;39.42;;;25.60;;
59147;SDS011;44930;52.878;6.168;2023-02-15T14:56:46;45.80;;;28.65;;
59147;SDS011;44930;52.878;6.168;2023-02-15T15:02:03;45.53;;;28.58;;
59147;SDS011;44930;52.878;6.168;2023-02-15T15:04:34;47.85;;;28.75;;
59147;SDS011;44930;52.878;6.168;2023-02-15T15:09:48;47.45;;;29.73;;
59147;SDS011;44930;52.878;6.168;2023-02-15T15:12:51;44.78;;;29.55;;
59147;SDS011;44930;52.878;6.168;2023-02-15T15:20:38;45.80;;;29.25;;
59147;SDS011;44930;52.878;6.168;2023-02-15T15:31:00;45.28;;;30.65;;
59147;SDS011;44930;52.878;6.168;2023-02-15T15:47:48;45.60;;;28.42;;
59147;SDS011;44930;52.878;6.168;2023-02-15T15:50:38;47.25;;;29.35;;
59147;SDS011;44930;52.878;6.168;2023-02-15T15:53:05;45.28;;;29.10;;
59147;SDS011;44930;52.878;6.168;2023-02-15T15:55:40;47.45;;;27.58;;
59147;SDS011;44930;52.878;6.168;2023-02-15T15:58:07;42.47;;;27.92;;
59147;SDS011;44930;52.878;6.168;2023-02-15T16:00:38;43.15;;;26.90;;
59147;SDS011;44930;52.878;6.168;2023-02-15T16:03:15;42.53;;;28.58;;
59147;SDS011;44930;52.878;6.168;2023-02-15T16:05:47;40.88;;;27.90;;
59147;SDS011;44930;52.878;6.168;2023-02-15T16:08:25;42.92;;;27.48;;
59147;SDS011;44930;52.878;6.168;2023-02-15T16:10:59;43.95;;;29.13;;
59147;SDS011;44930;52.878;6.168;2023-02-15T16:13:32;46.25;;;28.77;;
59147;SDS011;44930;52.878;6.168;2023-02-15T16:15:58;45.92;;;28.35;;
59147;SDS011;44930;52.878;6.168;2023-02-15T16:18:24;42.70;;;28.42;;
59147;SDS011;44930;52.878;6.168;2023-02-15T16:21:00;44.97;;;27.67;;
59147;SDS011;44930;52.878;6.168;2023-02-15T16:23:35;45.60;;;28.55;;
59147;SDS011;44930;52.878;6.168;2023-02-15T16:29:15;50.58;;;28.13;;
59147;SDS011;44930;52.878;6.168;2023-02-15T16:31:42;47.55;;;29.15;;
59147;SDS011;44930;52.878;6.168;2023-02-15T16:34:20;47.67;;;29.02;;
59147;SDS011;44930;52.878;6.168;2023-02-15T16:36:46;42.53;;;28.38;;
59147;SDS011;44930;52.878;6.168;2023-02-15T16:39:17;47.08;;;28.00;;
59147;SDS011;44930;52.878;6.168;2023-02-15T16:41:44;44.65;;;28.20;;
59147;SDS011;44930;52.878;6.168;2023-02-15T16:44:18;41.67;;;27.58;;
59147;SDS011;44930;52.878;6.168;2023-02-15T16:46:54;46.03;;;27.98;;
59147;SDS011;44930;52.878;6.168;2023-02-15T16:49:21;48.35;;;28.92;;
59147;SDS011;44930;52.878;6.168;2023-02-15T16:51:56;46.65;;;26.77;;
59147;SDS011;44930;52.878;6.168;2023-02-15T16:54:22;48.40;;;28.15;;
59147;SDS011;44930;52.878;6.168;2023-02-15T16:56:50;48.22;;;29.30;;
59147;SDS011;44930;52.878;6.168;2023-02-15T16:59:19;49.58;;;27.30;;
59147;SDS011;44930;52.878;6.168;2023-02-15T17:01:56;50.10;;;27.70;;
59147;SDS011;44930;52.878;6.168;2023-02-15T17:07:00;44.63;;;28.15;;
59147;SDS011;44930;52.878;6.168;2023-02-15T17:09:28;46.13;;;28.02;;
59147;SDS011;44930;52.878;6.168;2023-02-15T17:11:53;51.45;;;29.42;;
59147;SDS011;44930;52.878;6.168;2023-02-15T17:14:26;49.75;;;29.85;;
59147;SDS011;44930;52.878;6.168;2023-02-15T17:16:54;62.35;;;37.65;;
59147;SDS011;44930;52.878;6.168;2023-02-15T17:19:26;45.80;;;28.13;;
59147;SDS011;44930;52.878;6.168;2023-02-15T17:21:58;51.15;;;31.63;;
59147;SDS011;44930;52.878;6.168;2023-02-15T17:24:33;49.28;;;30.67;;
59147;SDS011;44930;52.878;6.168;2023-02-15T17:29:38;57.95;;;36.33;;
59147;SDS011;44930;52.878;6.168;2023-02-15T17:32:05;76.78;;;42.10;;
59147;SDS011;44930;52.878;6.168;2023-02-15T17:34:41;69.75;;;40.63;;
59147;SDS011;44930;52.878;6.168;2023-02-15T17:37:27;60.97;;;35.17;;
59147;SDS011;44930;52.878;6.168;2023-02-15T17:40:07;46.63;;;30.55;;
59147;SDS011;44930;52.878;6.168;2023-02-15T17:42:44;48.08;;;27.13;;